Time;durP1;ratioP1;P1;durP2;ratioP2;P2;SDS_P1;SDS_P2;PMS_P1;PMS_P2;Temp;Humidity;BMP_temperature;BMP_pressure;BME280_temperature;BME280_humidity;BME280_pressure;Samples;Min_cycle;Max_cycle;Signal;HPM_P1;HPM_P2
2021/03/03 00:00:29;;;;;;;7.18;5.60;;;;;;;;;;5051364;28;20029;-67
2021/03/03 00:02:55;;;;;;;6.90;5.65;;;;;;;;;;5051811;28;20060;-67
2021/03/03 00:05:21;;;;;;;6.40;5.38;;;;;;;;;;5051921;28;20025;-67
2021/03/03 00:07:47;;;;;;;10.07;7.30;;;;;;;;;;5051188;28;20530;-66
2021/03/03 00:10:13;;;;;;;8.18;5.45;;;;;;;;;;5051505;28;20432;-67
2021/03/03 00:12:39;;;;;;;6.93;5.60;;;;;;;;;;5051502;28;20045;-67
2021/03/03 00:15:06;;;;;;;5.90;5.30;;;;;;;;;;5052150;28;20115;-67
2021/03/03 00:17:32;;;;;;;7.20;5.65;;;;;;;;;;5050764;28;20472;-67
2021/03/03 00:19:58;;;;;;;7.85;6.72;;;;;;;;;;5051422;28;20060;-67
2021/03/03 00:22:24;;;;;;;7.50;6.40;;;;;;;;;;5051505;28;20024;-67
2021/03/03 00:24:50;;;;;;;6.78;5.05;;;;;;;;;;5050562;28;20072;-67
2021/03/03 00:27:16;;;;;;;8.07;5.70;;;;;;;;;;5051799;28;20348;-67
2021/03/03 00:29:42;;;;;;;8.07;5.85;;;;;;;;;;5050396;28;20051;-66
2021/03/03 00:32:08;;;;;;;7.40;5.90;;;;;;;;;;5051103;28;20392;-67
2021/03/03 00:34:34;;;;;;;7.18;5.82;;;;;;;;;;5050660;28;20041;-67
2021/03/03 00:37:01;;;;;;;8.73;7.03;;;;;;;;;;5051438;28;20440;-67
2021/03/03 00:39:27;;;;;;;8.35;6.15;;;;;;;;;;5051139;28;20025;-66
2021/03/03 00:41:53;;;;;;;7.22;6.22;;;;;;;;;;5050720;28;20050;-67
2021/03/03 00:44:19;;;;;;;6.72;5.85;;;;;;;;;;5051162;28;20025;-67
2021/03/03 00:46:45;;;;;;;7.32;5.70;;;;;;;;;;5049898;28;20033;-67
2021/03/03 00:49:11;;;;;;;9.73;5.93;;;;;;;;;;5050436;28;20499;-67
2021/03/03 00:51:37;;;;;;;9.02;6.05;;;;;;;;;;5050191;28;20399;-67
2021/03/03 00:54:03;;;;;;;7.05;5.60;;;;;;;;;;5050999;28;20451;-67
2021/03/03 00:56:29;;;;;;;9.27;6.35;;;;;;;;;;5050659;28;20113;-66
2021/03/03 00:58:55;;;;;;;7.85;5.47;;;;;;;;;;5050926;28;20025;-67
2021/03/03 01:01:21;;;;;;;8.13;7.35;;;;;;;;;;5050581;28;20433;-67
2021/03/03 01:03:48;;;;;;;6.55;5.93;;;;;;;;;;5050330;28;20025;-67
2021/03/03 01:06:14;;;;;;;6.85;5.80;;;;;;;;;;5050292;28;20052;-67
2021/03/03 01:08:41;;;;;;;8.43;5.60;;;;;;;;;;5050109;28;20055;-67
2021/03/03 01:11:07;;;;;;;7.78;6.80;;;;;;;;;;5050564;28;20053;-67
2021/03/03 01:13:34;;;;;;;8.30;6.57;;;;;;;;;;5049676;28;20100;-66
2021/03/03 01:16:00;;;;;;;7.15;5.10;;;;;;;;;;5050969;28;20029;-66
2021/03/03 01:18:26;;;;;;;6.53;5.90;;;;;;;;;;5050551;28;20040;-66
2021/03/03 01:20:52;;;;;;;8.35;6.07;;;;;;;;;;5050159;28;20033;-66
2021/03/03 01:23:18;;;;;;;6.30;5.68;;;;;;;;;;5049977;28;20037;-66
2021/03/03 01:25:44;;;;;;;6.20;5.70;;;;;;;;;;5049866;28;20024;-66
2021/03/03 01:28:11;;;;;;;7.88;6.22;;;;;;;;;;5032094;28;20407;-66
2021/03/03 01:30:37;;;;;;;7.15;5.20;;;;;;;;;;5049439;28;20025;-66
2021/03/03 01:33:03;;;;;;;7.68;6.35;;;;;;;;;;5050534;28;20525;-67
2021/03/03 01:35:30;;;;;;;7.35;5.95;;;;;;;;;;5048967;28;20033;-67
2021/03/03 01:37:56;;;;;;;7.25;5.25;;;;;;;;;;5050006;28;20025;-67
2021/03/03 01:40:22;;;;;;;8.77;5.22;;;;;;;;;;5049903;28;20025;-66
2021/03/03 01:42:48;;;;;;;6.97;5.78;;;;;;;;;;5049144;28;20381;-66
2021/03/03 01:45:14;;;;;;;7.43;6.15;;;;;;;;;;5049522;28;20483;-66
2021/03/03 01:47:40;;;;;;;6.63;5.95;;;;;;;;;;5049349;28;20386;-66
2021/03/03 01:50:07;;;;;;;11.10;6.68;;;;;;;;;;5049078;28;20086;-66
2021/03/03 01:52:34;;;;;;;12.45;5.75;;;;;;;;;;5049712;28;20167;-66
2021/03/03 01:55:00;;;;;;;8.60;6.22;;;;;;;;;;5049378;28;20037;-66
2021/03/03 01:57:26;;;;;;;6.97;5.93;;;;;;;;;;5049892;28;20025;-66
2021/03/03 01:59:53;;;;;;;6.55;5.88;;;;;;;;;;5049141;28;20096;-66
2021/03/03 02:02:23;;;;;;;6.25;5.65;;;;;;;;;;5049762;28;20032;-66
2021/03/03 02:04:49;;;;;;;10.02;5.78;;;;;;;;;;5048754;28;20032;-67
2021/03/03 02:07:18;;;;;;;8.90;5.60;;;;;;;;;;5049462;28;20052;-66
2021/03/03 02:09:51;;;;;;;11.70;6.80;;;;;;;;;;5049000;28;20039;-66
2021/03/03 02:12:19;;;;;;;7.15;6.10;;;;;;;;;;5049761;28;20106;-66
2021/03/03 02:14:49;;;;;;;7.05;5.80;;;;;;;;;;5049051;28;20062;-66
2021/03/03 02:17:15;;;;;;;6.68;5.68;;;;;;;;;;5049982;28;20029;-67
2021/03/03 02:19:42;;;;;;;7.85;6.05;;;;;;;;;;5049031;28;20411;-66
2021/03/03 02:22:14;;;;;;;9.70;7.97;;;;;;;;;;5048891;28;20040;-66
2021/03/03 02:24:43;;;;;;;11.70;6.30;;;;;;;;;;5049450;28;20234;-66
2021/03/03 02:27:10;;;;;;;6.72;5.82;;;;;;;;;;5049554;28;20036;-66
2021/03/03 02:29:36;;;;;;;8.63;4.93;;;;;;;;;;5049111;28;20025;-67
2021/03/03 02:32:02;;;;;;;8.90;6.15;;;;;;;;;;5048894;28;20032;-66
2021/03/03 02:34:29;;;;;;;6.10;5.50;;;;;;;;;;5049136;28;20581;-66
2021/03/03 02:36:56;;;;;;;11.13;6.18;;;;;;;;;;5049096;28;20614;-66
2021/03/03 02:39:23;;;;;;;10.55;7.80;;;;;;;;;;5049610;28;20087;-66
2021/03/03 02:41:50;;;;;;;10.13;5.80;;;;;;;;;;5052973;28;20032;-67
2021/03/03 02:44:16;;;;;;;11.38;7.30;;;;;;;;;;5053946;28;20025;-66
2021/03/03 02:46:43;;;;;;;7.30;5.75;;;;;;;;;;5053163;28;20036;-66
2021/03/03 02:49:10;;;;;;;10.38;7.45;;;;;;;;;;5053191;28;20032;-66
2021/03/03 02:51:36;;;;;;;9.75;6.68;;;;;;;;;;5052968;28;20029;-66
2021/03/03 02:54:02;;;;;;;6.80;5.80;;;;;;;;;;5052640;28;20081;-67
2021/03/03 02:56:31;;;;;;;7.45;6.63;;;;;;;;;;5053266;28;20056;-66
2021/03/03 02:58:59;;;;;;;8.18;6.10;;;;;;;;;;5053000;28;20028;-66
2021/03/03 03:01:26;;;;;;;7.05;6.35;;;;;;;;;;5053168;28;20090;-67
2021/03/03 03:03:53;;;;;;;7.53;6.53;;;;;;;;;;5052302;28;20025;-67
2021/03/03 03:06:24;;;;;;;9.85;6.38;;;;;;;;;;5052983;28;20149;-67
2021/03/03 03:08:52;;;;;;;7.93;6.53;;;;;;;;;;5052148;28;20403;-66
2021/03/03 03:11:20;;;;;;;10.73;7.28;;;;;;;;;;5052690;28;20025;-66
2021/03/03 03:13:48;;;;;;;8.80;5.80;;;;;;;;;;5052418;28;20152;-66
2021/03/03 03:16:14;;;;;;;7.20;5.65;;;;;;;;;;5053168;28;20033;-66
2021/03/03 03:18:52;;;;;;;8.80;5.78;;;;;;;;;;5052466;28;20065;-66
2021/03/03 03:21:19;;;;;;;8.48;5.90;;;;;;;;;;5052657;28;20116;-66
2021/03/03 03:23:46;;;;;;;8.77;5.93;;;;;;;;;;5052104;28;20056;-66
2021/03/03 03:26:12;;;;;;;7.30;5.97;;;;;;;;;;5052766;28;20422;-66
2021/03/03 03:28:39;;;;;;;7.80;6.22;;;;;;;;;;5052728;28;20037;-66
2021/03/03 03:31:08;;;;;;;6.40;5.53;;;;;;;;;;5052580;28;20029;-66
2021/03/03 03:33:35;;;;;;;8.93;6.70;;;;;;;;;;5052703;28;20083;-66
2021/03/03 03:36:01;;;;;;;14.73;5.82;;;;;;;;;;5051849;28;20484;-66
2021/03/03 03:38:28;;;;;;;9.50;5.75;;;;;;;;;;5052762;28;20491;-66
2021/03/03 03:40:54;;;;;;;8.75;6.68;;;;;;;;;;5051861;28;20067;-66
2021/03/03 03:43:21;;;;;;;6.88;5.38;;;;;;;;;;5052037;28;20029;-66
2021/03/03 03:45:48;;;;;;;6.75;5.80;;;;;;;;;;5052211;28;20037;-66
2021/03/03 03:48:15;;;;;;;7.90;6.97;;;;;;;;;;5052452;28;20380;-66
2021/03/03 03:50:41;;;;;;;14.95;5.53;;;;;;;;;;5051041;28;20521;-66
2021/03/03 03:53:07;;;;;;;8.98;6.40;;;;;;;;;;5051135;28;20037;-66
2021/03/03 03:55:34;;;;;;;10.32;6.93;;;;;;;;;;5052057;28;20277;-66
2021/03/03 03:58:01;;;;;;;8.95;6.47;;;;;;;;;;5051662;28;20682;-66
2021/03/03 04:00:27;;;;;;;9.40;6.55;;;;;;;;;;5051783;28;20020;-66
2021/03/03 04:02:53;;;;;;;6.93;5.40;;;;;;;;;;5051667;28;20033;-67
2021/03/03 04:05:20;;;;;;;7.35;6.18;;;;;;;;;;5051777;28;20079;-66
2021/03/03 04:07:46;;;;;;;7.93;6.65;;;;;;;;;;5051239;28;20045;-66
2021/03/03 04:10:13;;;;;;;8.27;6.03;;;;;;;;;;5051442;28;20544;-66
2021/03/03 04:12:40;;;;;;;9.27;6.07;;;;;;;;;;5051524;28;20082;-67
2021/03/03 04:15:06;;;;;;;7.90;6.70;;;;;;;;;;5052012;28;20032;-66
2021/03/03 04:17:33;;;;;;;6.30;5.15;;;;;;;;;;5052194;28;20621;-66
2021/03/03 04:19:59;;;;;;;8.40;6.88;;;;;;;;;;5050830;28;20495;-66
2021/03/03 04:22:25;;;;;;;13.68;7.70;;;;;;;;;;5051325;28;20104;-66
2021/03/03 04:24:51;;;;;;;6.68;5.50;;;;;;;;;;5051767;28;20455;-67
2021/03/03 04:27:17;;;;;;;7.28;6.57;;;;;;;;;;5051682;28;20148;-66
2021/03/03 04:29:43;;;;;;;10.25;6.57;;;;;;;;;;5050843;28;20025;-67
2021/03/03 04:32:09;;;;;;;7.53;6.30;;;;;;;;;;5051469;28;20029;-67
2021/03/03 04:34:35;;;;;;;10.85;7.10;;;;;;;;;;5051561;28;20040;-66
2021/03/03 04:37:01;;;;;;;7.55;6.68;;;;;;;;;;5050880;28;20119;-66
2021/03/03 04:39:27;;;;;;;7.65;6.53;;;;;;;;;;5033786;28;20361;-67
2021/03/03 04:41:53;;;;;;;10.00;6.03;;;;;;;;;;5050461;28;20071;-66
2021/03/03 04:44:20;;;;;;;7.43;6.45;;;;;;;;;;5051395;28;20025;-66
2021/03/03 04:46:46;;;;;;;11.98;6.85;;;;;;;;;;5050888;28;20029;-66
2021/03/03 04:49:12;;;;;;;9.88;6.50;;;;;;;;;;5051542;28;20033;-66
2021/03/03 04:51:38;;;;;;;8.35;6.45;;;;;;;;;;5050405;28;20071;-67
2021/03/03 04:54:05;;;;;;;6.80;6.13;;;;;;;;;;5050447;28;20399;-66
2021/03/03 04:56:31;;;;;;;7.07;6.38;;;;;;;;;;5050694;28;20109;-66
2021/03/03 04:58:57;;;;;;;8.43;7.13;;;;;;;;;;5049999;28;20097;-66
2021/03/03 05:01:23;;;;;;;8.25;6.45;;;;;;;;;;5050685;28;20029;-66
2021/03/03 05:03:49;;;;;;;8.48;5.93;;;;;;;;;;5050070;28;20384;-66
2021/03/03 05:06:15;;;;;;;9.55;6.95;;;;;;;;;;5050447;28;20057;-66
2021/03/03 05:08:41;;;;;;;7.75;5.35;;;;;;;;;;5050394;28;20345;-66
2021/03/03 05:11:07;;;;;;;9.25;5.88;;;;;;;;;;5050528;28;20193;-66
2021/03/03 05:13:33;;;;;;;12.30;7.90;;;;;;;;;;5051126;28;20040;-66
2021/03/03 05:15:59;;;;;;;11.05;6.68;;;;;;;;;;5050548;28;20626;-66
2021/03/03 05:18:25;;;;;;;9.10;7.15;;;;;;;;;;5051059;28;20032;-66
2021/03/03 05:20:51;;;;;;;11.60;6.03;;;;;;;;;;5049670;28;20060;-66
2021/03/03 05:23:27;;;;;;;8.35;6.00;;;;;;;;;;5050218;28;20095;-66
2021/03/03 05:25:53;;;;;;;11.95;8.05;;;;;;;;;;5049907;28;20057;-66
2021/03/03 05:28:19;;;;;;;6.57;4.65;;;;;;;;;;5050516;28;20200;-66
2021/03/03 05:30:45;;;;;;;10.25;5.15;;;;;;;;;;5049448;28;20237;-66
2021/03/03 05:33:11;;;;;;;10.63;6.10;;;;;;;;;;5050349;28;20058;-66
2021/03/03 05:35:37;;;;;;;7.45;6.47;;;;;;;;;;5050131;28;20120;-66
2021/03/03 05:38:03;;;;;;;7.75;6.47;;;;;;;;;;5050016;28;20086;-66
2021/03/03 05:40:30;;;;;;;7.57;6.13;;;;;;;;;;5050035;28;20520;-67
2021/03/03 05:42:56;;;;;;;21.98;8.60;;;;;;;;;;5049694;28;20384;-66
2021/03/03 05:45:22;;;;;;;10.50;6.90;;;;;;;;;;5050396;28;20429;-66
2021/03/03 05:47:49;;;;;;;9.80;6.22;;;;;;;;;;5049707;28;20032;-66
2021/03/03 05:50:17;;;;;;;7.80;6.82;;;;;;;;;;5049713;28;20479;-66
2021/03/03 05:52:43;;;;;;;9.20;6.35;;;;;;;;;;5049433;28;20071;-66
2021/03/03 05:55:10;;;;;;;9.13;5.82;;;;;;;;;;5049657;28;20028;-66
2021/03/03 05:57:37;;;;;;;8.15;5.63;;;;;;;;;;5049859;28;20029;-66
2021/03/03 06:00:06;;;;;;;10.45;7.32;;;;;;;;;;5049061;28;20033;-66
2021/03/03 06:02:34;;;;;;;9.52;6.28;;;;;;;;;;5049765;28;20403;-66
2021/03/03 06:05:00;;;;;;;7.30;5.82;;;;;;;;;;5049170;28;20039;-66
2021/03/03 06:07:26;;;;;;;10.00;6.75;;;;;;;;;;5049768;28;20068;-66
2021/03/03 06:09:52;;;;;;;7.18;6.07;;;;;;;;;;5049312;28;20025;-66
2021/03/03 06:12:18;;;;;;;8.13;5.82;;;;;;;;;;5049522;28;20025;-66
2021/03/03 06:14:44;;;;;;;7.95;6.95;;;;;;;;;;5048743;28;20056;-66
2021/03/03 06:17:10;;;;;;;8.27;6.55;;;;;;;;;;5050083;28;20151;-66
2021/03/03 06:19:37;;;;;;;10.25;6.45;;;;;;;;;;5050039;28;20059;-66
2021/03/03 06:22:22;;;;;;;8.63;7.13;;;;;;;;;;5048531;28;20025;-66
2021/03/03 06:24:48;;;;;;;9.20;5.70;;;;;;;;;;5048924;28;20044;-66
2021/03/03 06:27:15;;;;;;;7.75;6.47;;;;;;;;;;5049897;28;20032;-66
2021/03/03 06:29:41;;;;;;;11.45;7.30;;;;;;;;;;5049254;28;20029;-66
2021/03/03 06:32:07;;;;;;;8.30;6.28;;;;;;;;;;5049069;28;20029;-66
2021/03/03 06:34:33;;;;;;;8.05;6.60;;;;;;;;;;5049283;28;20025;-66
2021/03/03 06:37:00;;;;;;;8.07;5.90;;;;;;;;;;5048976;28;20102;-66
2021/03/03 06:39:26;;;;;;;6.80;5.88;;;;;;;;;;5049168;28;20049;-66
2021/03/03 06:41:56;;;;;;;6.25;5.65;;;;;;;;;;5048827;28;20511;-66
2021/03/03 06:44:23;;;;;;;9.73;6.20;;;;;;;;;;5049244;28;20119;-67
2021/03/03 06:47:06;;;;;;;13.50;8.02;;;;;;;;;;5045400;28;20061;-66
2021/03/03 06:49:32;;;;;;;11.90;6.85;;;;;;;;;;5048793;28;20032;-66
2021/03/03 06:51:58;;;;;;;13.90;8.38;;;;;;;;;;5048100;28;20033;-66
2021/03/03 06:54:25;;;;;;;16.65;8.52;;;;;;;;;;5049069;28;20056;-66
2021/03/03 06:56:52;;;;;;;14.55;9.07;;;;;;;;;;5048450;28;20064;-66
2021/03/03 06:59:27;;;;;;;12.68;7.95;;;;;;;;;;5046676;28;20025;-66
2021/03/03 07:01:54;;;;;;;9.57;8.40;;;;;;;;;;5032403;28;20487;-66
2021/03/03 07:04:24;;;;;;;13.57;9.90;;;;;;;;;;5042731;28;20032;-68
2021/03/03 07:06:50;;;;;;;17.23;7.82;;;;;;;;;;5062847;28;20052;-68
2021/03/03 07:09:17;;;;;;;14.68;9.77;;;;;;;;;;5052186;28;20503;-70
2021/03/03 07:11:43;;;;;;;12.52;9.60;;;;;;;;;;5046824;28;20083;-66
2021/03/03 07:14:16;;;;;;;17.92;9.95;;;;;;;;;;5046494;28;20104;-66
2021/03/03 07:17:00;;;;;;;18.40;10.52;;;;;;;;;;5051170;28;20057;-66
2021/03/03 07:19:26;;;;;;;16.35;9.80;;;;;;;;;;5059923;28;20544;-66
2021/03/03 07:21:53;;;;;;;13.57;9.43;;;;;;;;;;5063803;28;20046;-66
2021/03/03 07:24:19;;;;;;;12.98;8.85;;;;;;;;;;5047212;28;20055;-66
2021/03/03 07:26:46;;;;;;;12.90;9.55;;;;;;;;;;5047477;28;20029;-66
2021/03/03 07:29:12;;;;;;;16.25;9.90;;;;;;;;;;5062457;28;20029;-65
2021/03/03 07:31:39;;;;;;;17.95;9.90;;;;;;;;;;5071709;28;20107;-66
2021/03/03 07:34:08;;;;;;;17.52;11.13;;;;;;;;;;5065241;28;20025;-66
2021/03/03 07:36:35;;;;;;;17.85;10.10;;;;;;;;;;5054792;28;20273;-66
2021/03/03 07:39:03;;;;;;;15.13;11.00;;;;;;;;;;5049624;28;20025;-66
2021/03/03 07:41:30;;;;;;;16.30;10.55;;;;;;;;;;5031819;28;20030;-66
2021/03/03 07:43:58;;;;;;;37.05;12.43;;;;;;;;;;5046434;28;20283;-66
2021/03/03 07:46:24;;;;;;;25.33;12.18;;;;;;;;;;5065049;28;20036;-66
2021/03/03 07:48:51;;;;;;;17.15;9.35;;;;;;;;;;5068173;28;20040;-66
2021/03/03 07:51:19;;;;;;;20.83;11.90;;;;;;;;;;5049463;28;20122;-66
2021/03/03 07:53:45;;;;;;;15.48;10.45;;;;;;;;;;5046453;28;20066;-66
2021/03/03 07:56:12;;;;;;;23.70;11.98;;;;;;;;;;5051004;28;20453;-66
2021/03/03 07:58:38;;;;;;;15.82;10.85;;;;;;;;;;5049205;28;20114;-67
2021/03/03 08:01:05;;;;;;;17.08;9.52;;;;;;;;;;5044187;28;20494;-66
2021/03/03 08:03:44;;;;;;;19.30;11.73;;;;;;;;;;5051724;28;20036;-65
2021/03/03 08:06:25;;;;;;;15.88;9.63;;;;;;;;;;5053081;28;20251;-65
2021/03/03 08:09:07;;;;;;;17.00;10.73;;;;;;;;;;5048940;28;20410;-66
2021/03/03 08:11:34;;;;;;;20.55;10.90;;;;;;;;;;5050864;28;20549;-65
2021/03/03 08:14:00;;;;;;;14.70;10.57;;;;;;;;;;5054876;28;20441;-65
2021/03/03 08:16:26;;;;;;;17.95;10.38;;;;;;;;;;5060199;28;20025;-65
2021/03/03 08:18:57;;;;;;;12.45;9.75;;;;;;;;;;5056229;28;20397;-65
2021/03/03 08:21:23;;;;;;;21.08;10.50;;;;;;;;;;5048772;28;20033;-68
2021/03/03 08:23:56;;;;;;;12.80;9.60;;;;;;;;;;5049892;28;20029;-65
2021/03/03 08:26:22;;;;;;;10.27;8.70;;;;;;;;;;5049557;28;20486;-65
2021/03/03 08:28:48;;;;;;;17.40;10.18;;;;;;;;;;5054483;28;20048;-65
2021/03/03 08:31:19;;;;;;;18.83;10.43;;;;;;;;;;5047818;28;20120;-66
2021/03/03 08:33:48;;;;;;;12.95;10.85;;;;;;;;;;5051816;28;20057;-67
2021/03/03 08:36:20;;;;;;;23.75;9.40;;;;;;;;;;5051809;28;20036;-66
2021/03/03 08:39:09;;;;;;;14.43;8.70;;;;;;;;;;5053164;28;20029;-66
2021/03/03 08:41:36;;;;;;;17.85;11.63;;;;;;;;;;5034695;28;20055;-65
2021/03/03 08:44:06;;;;;;;22.90;12.13;;;;;;;;;;5050480;28;20021;-66
2021/03/03 08:46:38;;;;;;;12.40;8.93;;;;;;;;;;5056246;28;20476;-65
2021/03/03 08:49:04;;;;;;;9.18;7.85;;;;;;;;;;5048868;28;20182;-65
2021/03/03 08:51:33;;;;;;;18.60;9.00;;;;;;;;;;5046304;28;20148;-65
2021/03/03 08:54:01;;;;;;;9.82;8.82;;;;;;;;;;5055345;28;20778;-66
2021/03/03 08:56:34;;;;;;;10.82;8.80;;;;;;;;;;5058581;28;20028;-66
2021/03/03 08:59:01;;;;;;;13.73;9.23;;;;;;;;;;5046620;28;20127;-66
2021/03/03 09:01:51;;;;;;;13.60;8.90;;;;;;;;;;5044452;28;20033;-65
2021/03/03 09:04:18;;;;;;;17.75;9.00;;;;;;;;;;5057667;28;20498;-65
2021/03/03 09:06:48;;;;;;;12.38;8.90;;;;;;;;;;5054315;28;20045;-65
2021/03/03 09:09:14;;;;;;;13.48;9.63;;;;;;;;;;5058561;28;20111;-65
2021/03/03 09:11:40;;;;;;;10.68;7.07;;;;;;;;;;5048022;28;20056;-65
2021/03/03 09:14:06;;;;;;;11.80;8.55;;;;;;;;;;5057850;28;20032;-65
2021/03/03 09:16:32;;;;;;;15.48;8.90;;;;;;;;;;5058754;28;20033;-64
2021/03/03 09:19:03;;;;;;;13.85;8.40;;;;;;;;;;5057872;28;20093;-65
2021/03/03 09:21:30;;;;;;;10.10;8.13;;;;;;;;;;5053120;28;20035;-65
2021/03/03 09:24:12;;;;;;;9.45;7.82;;;;;;;;;;5056010;28;20031;-65
2021/03/03 09:26:38;;;;;;;16.48;7.95;;;;;;;;;;5049161;28;20418;-67
2021/03/03 09:29:05;;;;;;;10.35;7.25;;;;;;;;;;5046558;28;20045;-66
2021/03/03 09:31:38;;;;;;;13.73;9.00;;;;;;;;;;5045752;28;20057;-66
2021/03/03 09:34:05;;;;;;;8.32;6.93;;;;;;;;;;5047480;28;20164;-66
2021/03/03 09:36:31;;;;;;;11.25;8.77;;;;;;;;;;5047366;28;20068;-65
2021/03/03 09:38:58;;;;;;;16.10;10.45;;;;;;;;;;5046966;28;20600;-66
2021/03/03 09:41:25;;;;;;;14.02;8.98;;;;;;;;;;5052017;28;20348;-66
2021/03/03 09:44:07;;;;;;;13.50;7.72;;;;;;;;;;5047954;28;20040;-67
2021/03/03 09:46:52;;;;;;;13.07;8.02;;;;;;;;;;5058012;28;20113;-68
2021/03/03 09:49:25;;;;;;;15.18;8.80;;;;;;;;;;5047101;28;20499;-66
2021/03/03 09:51:51;;;;;;;;;;;;;;;;;;5044436;28;20052;-66
2021/03/03 09:54:27;;;;;;;12.25;8.25;;;;;;;;;;5050463;28;19919;-66
2021/03/03 09:56:53;;;;;;;8.55;7.68;;;;;;;;;;5050252;28;20067;-66
2021/03/03 09:59:19;;;;;;;12.65;8.32;;;;;;;;;;5046919;28;20040;-66
2021/03/03 10:01:46;;;;;;;14.18;9.77;;;;;;;;;;5050202;28;20050;-65
2021/03/03 10:04:12;;;;;;;15.70;9.32;;;;;;;;;;5055988;28;20036;-65
2021/03/03 10:06:38;;;;;;;12.35;8.85;;;;;;;;;;5046288;28;20067;-65
2021/03/03 10:09:05;;;;;;;10.68;8.27;;;;;;;;;;5046844;28;20059;-65
2021/03/03 10:11:31;;;;;;;10.80;7.53;;;;;;;;;;5051481;28;20033;-66
2021/03/03 10:14:08;;;;;;;9.65;8.68;;;;;;;;;;5055097;28;20094;-66
2021/03/03 10:16:34;;;;;;;11.63;9.10;;;;;;;;;;5049899;28;20036;-65
2021/03/03 10:19:08;;;;;;;10.00;7.95;;;;;;;;;;5055487;28;20036;-65
2021/03/03 10:22:00;;;;;;;12.00;9.02;;;;;;;;;;5056382;28;20052;-65
2021/03/03 10:24:26;;;;;;;12.95;8.68;;;;;;;;;;5045770;28;20033;-66
2021/03/03 10:26:52;;;;;;;14.05;8.40;;;;;;;;;;5052392;28;20040;-66
2021/03/03 10:29:39;;;;;;;13.13;8.60;;;;;;;;;;5059072;28;20037;-65
2021/03/03 10:32:12;;;;;;;9.82;7.65;;;;;;;;;;5045471;28;20024;-68
2021/03/03 10:34:38;;;;;;;10.68;8.82;;;;;;;;;;5047149;28;20075;-66
2021/03/03 10:37:05;;;;;;;8.88;7.28;;;;;;;;;;5050853;28;20455;-65
2021/03/03 10:39:34;;;;;;;17.10;10.30;;;;;;;;;;5054647;28;20457;-66
2021/03/03 10:42:03;;;;;;;17.98;9.25;;;;;;;;;;5047599;28;20435;-66
2021/03/03 10:44:49;;;;;;;16.98;9.13;;;;;;;;;;5047053;28;20025;-66
2021/03/03 10:47:15;;;;;;;12.23;8.73;;;;;;;;;;5054148;28;20032;-66
2021/03/03 10:49:41;;;;;;;12.07;8.73;;;;;;;;;;5053488;28;20049;-69
2021/03/03 10:52:20;;;;;;;16.88;9.30;;;;;;;;;;5055643;28;20104;-66
2021/03/03 10:54:46;;;;;;;15.50;11.05;;;;;;;;;;5057205;28;20472;-66
2021/03/03 10:57:12;;;;;;;16.50;10.60;;;;;;;;;;5057289;28;20056;-66
2021/03/03 10:59:38;;;;;;;15.05;8.32;;;;;;;;;;5054459;28;20581;-66
2021/03/03 11:02:05;;;;;;;13.32;9.05;;;;;;;;;;5046720;28;20029;-65
2021/03/03 11:04:41;;;;;;;16.90;10.20;;;;;;;;;;5050135;28;20061;-67
2021/03/03 11:07:08;;;;;;;23.25;10.23;;;;;;;;;;5049608;28;20044;-66
2021/03/03 11:09:34;;;;;;;19.42;9.70;;;;;;;;;;5055474;28;20131;-65
2021/03/03 11:12:01;;;;;;;14.65;9.43;;;;;;;;;;5055611;28;20025;-66
2021/03/03 11:14:28;;;;;;;13.18;8.30;;;;;;;;;;5053889;28;20363;-66
2021/03/03 11:16:55;;;;;;;15.27;9.43;;;;;;;;;;5049274;28;20491;-66
2021/03/03 11:19:22;;;;;;;12.38;8.77;;;;;;;;;;5049676;28;20035;-66
2021/03/03 11:21:48;;;;;;;15.45;9.18;;;;;;;;;;5049947;28;20111;-65
2021/03/03 11:24:14;;;;;;;18.70;9.65;;;;;;;;;;5054106;28;20554;-65
2021/03/03 11:26:44;;;;;;;11.88;8.45;;;;;;;;;;5045656;28;20165;-66
2021/03/03 11:29:11;;;;;;;8.80;7.88;;;;;;;;;;5052616;28;20076;-66
2021/03/03 11:31:37;;;;;;;15.18;9.27;;;;;;;;;;5055749;28;20076;-66
2021/03/03 11:34:04;;;;;;;15.88;7.82;;;;;;;;;;5051412;28;20021;-66
2021/03/03 11:36:31;;;;;;;12.02;9.43;;;;;;;;;;5048233;28;20043;-66
2021/03/03 11:38:57;;;;;;;12.23;7.93;;;;;;;;;;5054573;28;20032;-66
2021/03/03 11:41:23;;;;;;;16.65;9.13;;;;;;;;;;5057141;28;20112;-66
2021/03/03 11:43:49;;;;;;;19.58;8.45;;;;;;;;;;5059529;28;20041;-67
2021/03/03 11:46:16;;;;;;;15.52;9.10;;;;;;;;;;5052700;28;20024;-67
2021/03/03 11:48:42;;;;;;;9.98;7.55;;;;;;;;;;5051236;28;20072;-66
2021/03/03 11:51:08;;;;;;;14.27;10.43;;;;;;;;;;5055355;28;20531;-67
2021/03/03 11:53:34;;;;;;;18.35;8.90;;;;;;;;;;5050940;28;20033;-67
2021/03/03 11:56:00;;;;;;;11.48;7.85;;;;;;;;;;5049645;28;20091;-67
2021/03/03 11:58:26;;;;;;;13.27;8.35;;;;;;;;;;5051793;28;20561;-66
2021/03/03 12:00:52;;;;;;;11.98;8.80;;;;;;;;;;5051063;28;20033;-66
2021/03/03 12:03:18;;;;;;;15.82;7.60;;;;;;;;;;5048256;28;20071;-67
2021/03/03 12:05:44;;;;;;;13.50;9.30;;;;;;;;;;5044897;28;20551;-67
2021/03/03 12:08:11;;;;;;;15.25;9.80;;;;;;;;;;5025940;28;20365;-67
2021/03/03 12:10:38;;;;;;;15.40;9.43;;;;;;;;;;5028421;28;20092;-67
2021/03/03 12:13:04;;;;;;;9.55;8.25;;;;;;;;;;5028487;28;20057;-67
2021/03/03 12:15:30;;;;;;;10.05;8.02;;;;;;;;;;5037519;28;20488;-66
2021/03/03 12:17:56;;;;;;;10.27;8.30;;;;;;;;;;5036045;28;20075;-67
2021/03/03 12:20:24;;;;;;;18.80;11.48;;;;;;;;;;5036553;28;20618;-67
2021/03/03 12:22:50;;;;;;;18.23;8.32;;;;;;;;;;5026919;28;20036;-67
2021/03/03 12:25:16;;;;;;;11.32;9.10;;;;;;;;;;5032718;28;20033;-67
2021/03/03 12:27:43;;;;;;;13.07;7.93;;;;;;;;;;5033198;28;20052;-66
2021/03/03 12:30:09;;;;;;;14.13;10.15;;;;;;;;;;5029737;28;20488;-66
2021/03/03 12:32:35;;;;;;;14.80;8.90;;;;;;;;;;5029895;28;20086;-66
2021/03/03 12:35:02;;;;;;;12.88;7.22;;;;;;;;;;5032857;28;20033;-66
2021/03/03 12:37:28;;;;;;;11.95;8.60;;;;;;;;;;5032280;28;20033;-66
2021/03/03 12:39:54;;;;;;;16.77;9.45;;;;;;;;;;5033161;28;20029;-66
2021/03/03 12:42:20;;;;;;;10.90;8.48;;;;;;;;;;5025884;28;20563;-66
2021/03/03 12:44:46;;;;;;;10.90;8.50;;;;;;;;;;5029779;28;20380;-66
2021/03/03 12:47:13;;;;;;;13.45;9.80;;;;;;;;;;5036683;28;20040;-67
2021/03/03 12:49:39;;;;;;;14.15;8.30;;;;;;;;;;5034973;28;20040;-66
2021/03/03 12:52:05;;;;;;;13.75;8.40;;;;;;;;;;5029930;28;20249;-66
2021/03/03 12:54:31;;;;;;;13.23;9.07;;;;;;;;;;5029908;28;20035;-66
2021/03/03 12:56:57;;;;;;;11.00;8.95;;;;;;;;;;5033896;28;20111;-66
2021/03/03 12:59:23;;;;;;;11.80;8.45;;;;;;;;;;5036146;28;20040;-66
2021/03/03 13:01:49;;;;;;;11.80;8.57;;;;;;;;;;5022719;28;20033;-66
2021/03/03 13:04:16;;;;;;;16.05;8.77;;;;;;;;;;5031713;28;20064;-65
2021/03/03 13:06:42;;;;;;;12.88;8.82;;;;;;;;;;5041696;28;20084;-66
2021/03/03 13:09:08;;;;;;;12.80;10.45;;;;;;;;;;5043531;28;20505;-66
2021/03/03 13:11:34;;;;;;;13.20;8.75;;;;;;;;;;5039248;28;20021;-67
2021/03/03 13:14:00;;;;;;;12.57;9.63;;;;;;;;;;5046527;28;20551;-65
2021/03/03 13:16:26;;;;;;;10.57;8.73;;;;;;;;;;5050789;28;20059;-66
2021/03/03 13:18:53;;;;;;;12.63;9.10;;;;;;;;;;5051873;28;20048;-66
2021/03/03 13:21:19;;;;;;;16.55;8.65;;;;;;;;;;5048478;28;20062;-65
2021/03/03 13:23:45;;;;;;;17.60;9.18;;;;;;;;;;5050849;28;20123;-65
2021/03/03 13:26:12;;;;;;;14.95;10.52;;;;;;;;;;5057131;28;20530;-65
2021/03/03 13:28:38;;;;;;;13.27;9.88;;;;;;;;;;5048401;28;20518;-66
2021/03/03 13:31:04;;;;;;;12.63;10.25;;;;;;;;;;5046328;28;20132;-65
2021/03/03 13:33:30;;;;;;;13.52;8.48;;;;;;;;;;5044866;28;20088;-65
2021/03/03 13:35:56;;;;;;;13.82;9.52;;;;;;;;;;5051314;28;20634;-65
2021/03/03 13:38:23;;;;;;;12.15;8.77;;;;;;;;;;5047692;28;20037;-65
2021/03/03 13:40:49;;;;;;;12.90;9.43;;;;;;;;;;5044901;28;20025;-65
2021/03/03 13:43:16;;;;;;;13.85;9.25;;;;;;;;;;5041201;28;20033;-65
2021/03/03 13:45:42;;;;;;;14.05;8.82;;;;;;;;;;5043312;28;20578;-65
2021/03/03 13:48:08;;;;;;;13.68;11.25;;;;;;;;;;5046846;28;20037;-66
2021/03/03 13:50:34;;;;;;;10.63;8.55;;;;;;;;;;5045321;28;20032;-65
2021/03/03 13:53:00;;;;;;;12.23;7.60;;;;;;;;;;5043287;28;20374;-65
2021/03/03 13:55:26;;;;;;;13.55;7.60;;;;;;;;;;5045877;28;20569;-66
2021/03/03 13:57:52;;;;;;;12.57;8.48;;;;;;;;;;5045735;28;20478;-65
2021/03/03 14:00:19;;;;;;;9.50;7.57;;;;;;;;;;5050647;28;20566;-65
2021/03/03 14:02:45;;;;;;;10.90;7.68;;;;;;;;;;5051965;28;20051;-65
2021/03/03 14:05:11;;;;;;;17.40;10.48;;;;;;;;;;5051661;28;20025;-65
2021/03/03 14:07:37;;;;;;;11.32;8.40;;;;;;;;;;5044792;28;20327;-65
2021/03/03 14:10:04;;;;;;;10.93;8.20;;;;;;;;;;5052575;28;20032;-65
2021/03/03 14:12:30;;;;;;;11.25;9.10;;;;;;;;;;5050232;28;20021;-65
2021/03/03 14:14:56;;;;;;;11.93;8.60;;;;;;;;;;5044954;28;20048;-65
2021/03/03 14:17:22;;;;;;;9.15;8.05;;;;;;;;;;5055982;28;20048;-65
2021/03/03 14:19:48;;;;;;;12.43;9.00;;;;;;;;;;5054224;28;20029;-65
2021/03/03 14:22:14;;;;;;;8.63;7.82;;;;;;;;;;5053867;28;20492;-65
2021/03/03 14:24:40;;;;;;;15.00;8.80;;;;;;;;;;5055307;28;20498;-66
2021/03/03 14:27:07;;;;;;;12.13;8.27;;;;;;;;;;5054247;28;20049;-65
2021/03/03 14:29:33;;;;;;;14.07;8.93;;;;;;;;;;5040540;28;20553;-65
2021/03/03 14:31:59;;;;;;;15.93;10.00;;;;;;;;;;5040070;28;20060;-65
2021/03/03 14:34:25;;;;;;;14.93;9.60;;;;;;;;;;5038146;28;20037;-65